Time;durP1;ratioP1;P1;durP2;ratioP2;P2;SDS_P1;SDS_P2;PMS_P1;PMS_P2;Temp;Humidity;BMP_temperature;BMP_pressure;BME280_temperature;BME280_humidity;BME280_pressure;Samples;Min_cycle;Max_cycle;Signal;HPM_P1;HPM_P2
2022/11/09 00:01:16;;;;;;;26.95;25.23;;;;;;;14.46;65.13;100389.16;5030830;28;20033;-72
2022/11/09 00:03:42;;;;;;;24.27;22.88;;;;;;;14.46;64.86;100391.88;5031102;28;20033;-71
2022/11/09 00:06:07;;;;;;;25.67;24.10;;;;;;;14.45;65.12;100387.56;5014443;28;20066;-71
2022/11/09 00:08:35;;;;;;;26.67;24.83;;;;;;;14.44;64.88;100380.50;5016405;28;20054;-71
2022/11/09 00:11:06;;;;;;;27.10;25.40;;;;;;;14.45;65.07;100387.56;5014411;28;20040;-71
2022/11/09 00:13:35;;;;;;;25.77;24.35;;;;;;;14.46;65.01;100389.16;5026523;28;20432;-72
2022/11/09 00:16:01;;;;;;;26.95;25.13;;;;;;;14.46;64.76;100392.72;5017159;28;20028;-73
2022/11/09 00:18:27;;;;;;;26.65;24.92;;;;;;;14.47;64.76;100385.38;5017839;28;20045;-71
2022/11/09 00:20:52;;;;;;;25.05;23.58;;;;;;;14.45;64.89;100363.91;5021617;28;20147;-73
2022/11/09 00:23:17;;;;;;;26.95;25.17;;;;;;;14.45;64.99;100366.63;5033450;28;20029;-72
2022/11/09 00:25:43;;;;;;;25.23;23.73;;;;;;;14.46;65.30;100373.69;5031569;28;20159;-71
2022/11/09 00:28:08;;;;;;;27.00;25.27;;;;;;;14.47;65.53;100382.66;5031606;28;20116;-71
2022/11/09 00:30:34;;;;;;;24.60;22.95;;;;;;;14.47;65.72;100391.63;5052756;28;20033;-70
2022/11/09 00:32:59;;;;;;;27.60;25.75;;;;;;;14.46;65.71;100379.13;5017471;28;20065;-71
2022/11/09 00:35:25;;;;;;;25.48;23.98;;;;;;;14.47;65.78;100388.09;5018488;28;20034;-71
2022/11/09 00:37:50;;;;;;;27.13;25.35;;;;;;;14.47;66.01;100363.63;5029433;28;20488;-71
2022/11/09 00:40:16;;;;;;;25.50;23.88;;;;;;;14.46;65.80;100395.44;5022755;28;20466;-71
2022/11/09 00:42:41;;;;;;;25.20;23.73;;;;;;;14.47;65.65;100390.81;5012744;28;20046;-71
2022/11/09 00:45:07;;;;;;;28.52;26.42;;;;;;;14.46;66.00;100379.13;5024803;28;20473;-71
2022/11/09 00:47:32;;;;;;;25.13;23.73;;;;;;;14.46;66.38;100387.28;5014830;28;20025;-72
2022/11/09 00:49:57;;;;;;;26.83;25.05;;;;;;;14.46;66.24;100381.00;5021246;28;20053;-73
2022/11/09 00:52:23;;;;;;;27.00;25.38;;;;;;;14.45;66.13;100373.97;5029376;28;20480;-71
2022/11/09 00:54:48;;;;;;;27.48;25.88;;;;;;;14.45;66.07;100387.56;5025104;28;20116;-71
2022/11/09 00:57:14;;;;;;;25.60;23.90;;;;;;;14.45;66.09;100390.28;5013258;28;20129;-71
2022/11/09 00:59:39;;;;;;;25.65;23.95;;;;;;;14.45;65.80;100384.84;5017230;28;20449;-72
2022/11/09 01:02:04;;;;;;;27.52;25.77;;;;;;;14.45;66.07;100379.41;5028996;28;20041;-71
2022/11/09 01:04:30;;;;;;;27.05;25.25;;;;;;;14.44;65.88;100380.50;5031329;28;20550;-72
2022/11/09 01:06:55;;;;;;;25.55;23.98;;;;;;;14.44;66.00;100384.03;5013594;28;20087;-70
2022/11/09 01:09:20;;;;;;;24.30;23.00;;;;;;;14.43;65.82;100379.66;5013682;28;20065;-72
2022/11/09 01:11:46;;;;;;;27.92;25.33;;;;;;;14.43;65.98;100390.53;5034327;28;20061;-72
2022/11/09 01:14:11;;;;;;;26.33;24.52;;;;;;;14.42;65.62;100388.91;5026239;28;20046;-71
2022/11/09 01:16:38;;;;;;;25.80;24.38;;;;;;;14.43;65.85;100392.44;5013826;28;20033;-71
2022/11/09 01:19:03;;;;;;;26.27;24.67;;;;;;;14.43;65.79;100389.72;5018631;28;20027;-73
2022/11/09 01:21:29;;;;;;;25.02;23.45;;;;;;;14.42;65.66;100394.34;5041530;28;20037;-71
2022/11/09 01:23:55;;;;;;;24.10;22.77;;;;;;;14.43;65.91;100395.16;5014722;28;20029;-71
2022/11/09 01:26:21;;;;;;;25.02;23.38;;;;;;;14.43;65.55;100387.81;5026326;28;20029;-72
2022/11/09 01:28:47;;;;;;;25.77;24.27;;;;;;;14.44;65.82;100383.22;5032677;28;20356;-72
2022/11/09 01:31:15;;;;;;;26.83;25.33;;;;;;;14.43;65.89;100378.84;5030999;28;20028;-71
2022/11/09 01:33:41;;;;;;;25.55;23.98;;;;;;;14.43;65.44;100389.72;5021093;28;20037;-72
2022/11/09 01:36:20;;;;;;;26.85;25.35;;;;;;;14.43;65.96;100384.28;5012894;28;20033;-71
2022/11/09 01:38:46;;;;;;;25.30;23.85;;;;;;;14.42;65.53;100393.53;5013202;28;20112;-71
2022/11/09 01:41:15;;;;;;;28.35;26.50;;;;;;;14.41;65.54;100400.88;5017387;28;20084;-71
2022/11/09 01:43:41;;;;;;;25.05;23.42;;;;;;;14.41;65.49;100400.88;5015959;28;20064;-71
2022/11/09 01:46:21;;;;;;;27.55;25.27;;;;;;;14.42;65.79;100396.25;5012717;28;20065;-71
2022/11/09 01:48:52;;;;;;;26.30;24.10;;;;;;;14.40;65.63;100391.09;5013113;28;20036;-71
2022/11/09 01:51:33;;;;;;;25.45;24.02;;;;;;;14.39;65.73;100392.19;5016840;28;20033;-71
2022/11/09 01:54:04;;;;;;;26.38;24.92;;;;;;;14.40;65.56;100398.44;5013006;28;20056;-71
2022/11/09 01:56:31;;;;;;;25.60;24.02;;;;;;;14.39;65.57;100391.34;5020435;28;20036;-71
2022/11/09 01:59:04;;;;;;;25.35;24.10;;;;;;;14.39;65.30;100388.63;5018705;28;20026;-71
2022/11/09 02:01:31;;;;;;;27.85;25.90;;;;;;;14.39;65.86;100391.34;5014184;28;20022;-71
2022/11/09 02:04:37;;;;;;;25.55;24.25;;;;;;;14.38;65.56;100392.47;5020958;28;20040;-71
2022/11/09 02:07:04;;;;;;;25.13;23.88;;;;;;;14.38;65.29;100395.97;5038177;28;20059;-71
2022/11/09 02:09:52;;;;;;;24.73;23.33;;;;;;;14.38;65.29;100398.69;5028321;28;20022;-71
2022/11/09 02:12:19;;;;;;;25.63;24.10;;;;;;;14.37;65.53;100394.38;5014373;28;20030;-71
2022/11/09 02:14:47;;;;;;;26.38;25.08;;;;;;;14.37;65.33;100401.72;5032690;28;20188;-71
2022/11/09 02:17:12;;;;;;;25.63;24.08;;;;;;;14.37;65.30;100399.81;5018383;28;20030;-71
2022/11/09 02:19:37;;;;;;;26.65;24.90;;;;;;;14.36;65.58;100392.72;5012920;28;20033;-71
2022/11/09 02:22:03;;;;;;;24.83;23.35;;;;;;;14.36;65.17;100395.44;5010828;28;20033;-72
2022/11/09 02:24:28;;;;;;;26.83;25.27;;;;;;;14.36;65.27;100398.16;5026739;28;20116;-71
2022/11/09 02:26:54;;;;;;;26.40;25.00;;;;;;;14.37;65.44;100407.16;5030405;28;20492;-71
2022/11/09 02:29:25;;;;;;;26.50;25.08;;;;;;;14.37;65.03;100415.31;5031413;28;20031;-71
2022/11/09 02:31:56;;;;;;;25.88;24.58;;;;;;;14.36;65.51;100397.34;5031806;28;20032;-71
2022/11/09 02:34:23;;;;;;;26.80;25.38;;;;;;;14.35;65.32;100393.03;5027134;28;20030;-71
2022/11/09 02:36:48;;;;;;;25.65;24.35;;;;;;;14.35;65.55;100388.38;5015526;28;20033;-71
2022/11/09 02:39:16;;;;;;;26.80;25.15;;;;;;;14.34;65.34;100386.78;5018098;28;20041;-71
2022/11/09 02:42:05;;;;;;;25.00;23.48;;;;;;;14.35;65.39;100376.72;5012344;28;20038;-71
2022/11/09 02:44:34;;;;;;;26.20;24.52;;;;;;;14.34;65.66;100366.91;5026981;28;20401;-71
2022/11/09 02:46:59;;;;;;;24.52;22.92;;;;;;;14.33;65.61;100376.19;5036065;28;20037;-71
2022/11/09 02:49:25;;;;;;;24.27;22.52;;;;;;;14.33;65.05;100390.56;5015933;28;20044;-71
2022/11/09 02:51:50;;;;;;;25.65;24.05;;;;;;;14.33;65.44;100390.56;5025724;28;20060;-71
2022/11/09 02:54:15;;;;;;;27.08;25.38;;;;;;;14.34;65.40;100391.38;5034045;28;20040;-71
2022/11/09 02:56:41;;;;;;;25.23;23.90;;;;;;;14.34;65.27;100402.25;5028460;28;20535;-71
2022/11/09 02:59:06;;;;;;;25.88;24.13;;;;;;;14.33;65.34;100406.06;5029037;28;20466;-71
2022/11/09 03:01:32;;;;;;;24.98;23.52;;;;;;;14.33;65.18;100406.06;5014337;28;20095;-71
2022/11/09 03:03:57;;;;;;;24.40;23.15;;;;;;;14.34;65.15;100413.09;5015309;28;20037;-71
2022/11/09 03:06:33;;;;;;;25.88;24.23;;;;;;;14.33;65.25;100412.31;5028051;28;20029;-71
2022/11/09 03:09:02;;;;;;;24.38;22.90;;;;;;;14.32;65.25;100407.97;5030725;28;20090;-71
2022/11/09 03:11:28;;;;;;;24.80;23.60;;;;;;;14.32;65.18;100409.88;5034120;28;20270;-71
2022/11/09 03:13:54;;;;;;;26.23;24.38;;;;;;;14.32;65.09;100410.69;5035160;28;20026;-71
2022/11/09 03:16:19;;;;;;;25.95;24.20;;;;;;;14.32;65.35;100407.97;5049553;28;20029;-71
2022/11/09 03:18:45;;;;;;;26.55;24.70;;;;;;;14.33;65.27;100406.06;5036354;28;20041;-71
2022/11/09 03:21:10;;;;;;;25.63;23.92;;;;;;;14.32;65.33;100404.44;5015229;28;20062;-71
2022/11/09 03:23:35;;;;;;;24.45;23.15;;;;;;;14.32;65.25;100410.69;5015346;28;20054;-71
2022/11/09 03:26:01;;;;;;;24.73;23.20;;;;;;;14.32;65.13;100415.31;5016263;28;20470;-71
2022/11/09 03:28:26;;;;;;;27.48;25.55;;;;;;;14.32;65.41;100429.72;5043896;28;20111;-71
2022/11/09 03:30:51;;;;;;;25.40;23.30;;;;;;;14.32;65.34;100437.84;5027824;28;20037;-71
2022/11/09 03:33:17;;;;;;;25.33;23.90;;;;;;;14.32;65.56;100440.56;5014963;28;20373;-71
2022/11/09 03:35:43;;;;;;;25.58;24.08;;;;;;;14.32;64.91;100434.34;5014893;28;20112;-71
2022/11/09 03:38:08;;;;;;;24.58;22.88;;;;;;;14.32;65.02;100435.13;5033630;28;20380;-71
2022/11/09 03:40:34;;;;;;;24.45;23.25;;;;;;;14.32;65.16;100442.47;5029189;28;20500;-71
2022/11/09 03:43:02;;;;;;;24.05;22.50;;;;;;;14.33;65.25;100438.66;5021598;28;20103;-71
2022/11/09 03:45:27;;;;;;;27.73;25.75;;;;;;;14.32;65.08;100446.00;5049533;28;20458;-71
2022/11/09 03:47:58;;;;;;;25.38;23.38;;;;;;;14.32;65.05;100453.34;5034296;28;20030;-71
2022/11/09 03:50:25;;;;;;;25.55;24.15;;;;;;;14.32;65.08;100458.78;5030669;28;20105;-71
2022/11/09 03:52:50;;;;;;;24.33;23.13;;;;;;;14.32;65.36;100461.50;5033363;28;20033;-71
2022/11/09 03:55:16;;;;;;;26.55;24.90;;;;;;;14.32;64.96;100469.66;5033675;28;20464;-71
2022/11/09 03:57:43;;;;;;;26.42;23.92;;;;;;;14.32;65.21;100477.81;5049170;28;20084;-71
2022/11/09 04:00:09;;;;;;;25.60;23.73;;;;;;;14.32;65.25;100480.53;5034721;28;20044;-71
2022/11/09 04:02:35;;;;;;;25.70;24.05;;;;;;;14.31;65.22;100493.25;5033775;28;20060;-71
2022/11/09 04:05:00;;;;;;;27.20;25.10;;;;;;;14.32;65.31;100488.66;5033113;28;20029;-71
2022/11/09 04:07:25;;;;;;;26.27;24.52;;;;;;;14.30;65.21;100502.50;5032314;28;20031;-71
2022/11/09 04:09:51;;;;;;;25.80;24.08;;;;;;;14.31;65.11;100492.47;5021077;28;20499;-71
2022/11/09 04:12:16;;;;;;;26.00;24.60;;;;;;;14.31;65.22;100495.97;5014387;28;20037;-71
2022/11/09 04:14:41;;;;;;;25.08;23.08;;;;;;;14.32;64.93;100502.25;5032364;28;20061;-71
2022/11/09 04:17:07;;;;;;;25.08;23.33;;;;;;;14.31;65.23;100506.84;5021045;28;20454;-72
2022/11/09 04:19:32;;;;;;;24.80;23.50;;;;;;;14.31;65.01;100501.41;5023374;28;20361;-71
2022/11/09 04:21:57;;;;;;;25.50;23.50;;;;;;;14.31;64.96;100500.59;5021167;28;20029;-71
2022/11/09 04:24:23;;;;;;;25.50;23.58;;;;;;;14.30;65.14;100499.81;5026575;28;20377;-71
2022/11/09 04:26:48;;;;;;;24.65;22.73;;;;;;;14.29;65.21;100509.84;5024370;28;20069;-71
2022/11/09 04:29:13;;;;;;;26.67;25.08;;;;;;;14.28;65.24;100508.22;5016999;28;20087;-71
2022/11/09 04:31:39;;;;;;;25.17;23.60;;;;;;;14.28;65.23;100505.50;5019822;28;20041;-71
2022/11/09 04:34:04;;;;;;;25.67;23.90;;;;;;;14.28;65.32;100502.78;5028243;28;20032;-71
2022/11/09 04:36:30;;;;;;;26.80;24.23;;;;;;;14.28;65.30;100507.41;5037099;28;20029;-71
2022/11/09 04:38:55;;;;;;;25.67;23.10;;;;;;;14.28;65.31;100502.78;5022759;28;20029;-72
2022/11/09 04:41:20;;;;;;;23.67;22.38;;;;;;;14.27;65.50;100503.06;5022276;28;20105;-71
2022/11/09 04:43:46;;;;;;;24.52;23.23;;;;;;;14.27;65.18;100511.22;5015357;28;20033;-71
2022/11/09 04:46:11;;;;;;;25.90;24.40;;;;;;;14.28;65.30;100510.13;5025484;28;20029;-71
2022/11/09 04:48:37;;;;;;;25.45;23.90;;;;;;;14.26;65.05;100510.41;5019682;28;20064;-71
2022/11/09 04:51:04;;;;;;;26.77;25.25;;;;;;;14.26;65.17;100510.41;5023182;28;20032;-71
2022/11/09 04:53:30;;;;;;;26.40;24.23;;;;;;;14.28;65.01;100510.94;5013472;28;20041;-71
2022/11/09 04:55:56;;;;;;;25.25;23.35;;;;;;;14.26;65.40;100509.56;5014007;28;20038;-71
2022/11/09 04:58:21;;;;;;;24.95;23.02;;;;;;;14.26;64.80;100515.84;5026117;28;20034;-71
2022/11/09 05:00:48;;;;;;;25.33;23.70;;;;;;;14.26;65.13;100517.72;5017315;28;20029;-71
2022/11/09 05:03:13;;;;;;;24.92;23.63;;;;;;;14.26;64.97;100520.44;5033175;28;20025;-71
2022/11/09 05:05:40;;;;;;;25.25;23.80;;;;;;;14.26;64.95;100518.56;5032778;28;20034;-71
2022/11/09 05:08:07;;;;;;;24.27;22.65;;;;;;;14.26;65.21;100518.56;5032286;28;20033;-71
2022/11/09 05:10:33;;;;;;;26.58;24.42;;;;;;;14.25;65.11;100514.19;5022385;28;20033;-71
2022/11/09 05:13:01;;;;;;;25.33;23.73;;;;;;;14.25;65.05;100516.91;5018316;28;20021;-71
2022/11/09 05:15:26;;;;;;;26.27;24.73;;;;;;;14.25;65.02;100513.38;5012909;28;20038;-71
2022/11/09 05:17:52;;;;;;;25.00;23.27;;;;;;;14.25;65.08;100516.09;5013194;28;20228;-71
2022/11/09 05:20:17;;;;;;;24.83;23.27;;;;;;;14.24;64.87;100515.31;5023653;28;20036;-71
2022/11/09 05:25:27;;;;;;;25.77;23.73;;;;;;;14.23;65.10;100507.41;5013001;28;20045;-71
2022/11/09 05:27:52;;;;;;;26.00;24.10;;;;;;;14.23;65.48;100507.41;5013365;28;20018;-71
2022/11/09 05:30:18;;;;;;;25.35;23.95;;;;;;;14.22;64.91;100505.78;5026975;28;20098;-71
2022/11/09 05:32:44;;;;;;;26.90;25.13;;;;;;;14.22;64.79;100505.78;5031987;28;20374;-72
2022/11/09 05:35:09;;;;;;;25.48;23.98;;;;;;;14.22;65.11;100508.50;5013000;28;20033;-71
2022/11/09 05:37:37;;;;;;;26.00;24.40;;;;;;;14.22;65.13;100516.66;5012831;28;20033;-71
2022/11/09 05:40:02;;;;;;;26.03;24.30;;;;;;;14.22;65.07;100517.47;5031509;28;20096;-71
2022/11/09 05:42:28;;;;;;;25.77;24.27;;;;;;;14.21;65.35;100515.84;5015729;28;20058;-71
2022/11/09 05:44:54;;;;;;;23.63;22.35;;;;;;;14.20;65.13;100511.47;5015140;28;20041;-71
2022/11/09 05:47:20;;;;;;;24.60;22.75;;;;;;;14.20;64.96;100510.69;5012775;28;20060;-71
2022/11/09 05:49:45;;;;;;;25.83;23.90;;;;;;;14.19;65.44;100509.88;5012594;28;20097;-71
2022/11/09 05:52:11;;;;;;;23.48;22.13;;;;;;;14.18;65.17;100513.66;5028205;28;20061;-71
2022/11/09 05:54:36;;;;;;;26.55;24.83;;;;;;;14.18;64.89;100510.13;5031507;28;20037;-71
2022/11/09 05:57:01;;;;;;;25.25;23.63;;;;;;;14.18;64.91;100521.00;5015357;28;20084;-72
2022/11/09 05:59:27;;;;;;;24.27;22.73;;;;;;;14.18;65.00;100518.28;5011089;28;20076;-71
2022/11/09 06:01:52;;;;;;;25.65;24.25;;;;;;;14.16;65.27;100510.41;5022952;28;20028;-71
2022/11/09 06:04:17;;;;;;;24.77;23.15;;;;;;;14.17;65.32;100519.38;5032530;28;20057;-72
2022/11/09 06:06:43;;;;;;;26.13;24.40;;;;;;;14.16;65.14;100513.13;5030002;28;20048;-72
2022/11/09 06:09:08;;;;;;;24.25;22.90;;;;;;;14.16;64.98;100513.13;5012949;28;20133;-72
2022/11/09 06:11:33;;;;;;;24.60;23.15;;;;;;;14.15;65.23;100524.25;5025217;28;20092;-72
2022/11/09 06:13:59;;;;;;;26.33;24.20;;;;;;;14.14;65.14;100523.44;5029910;28;20148;-72
2022/11/09 06:16:24;;;;;;;23.90;22.45;;;;;;;14.15;65.01;100527.78;5046853;28;20037;-72
2022/11/09 06:18:50;;;;;;;25.13;23.00;;;;;;;14.14;64.86;100519.94;5029994;28;20462;-72
2022/11/09 06:21:15;;;;;;;24.98;23.42;;;;;;;14.13;65.23;100521.81;5012629;28;20030;-72
2022/11/09 06:23:41;;;;;;;26.95;25.25;;;;;;;14.13;65.20;100527.25;5018190;28;20033;-72
2022/11/09 06:26:10;;;;;;;25.35;23.75;;;;;;;14.12;65.07;100524.81;5021234;28;20102;-72
2022/11/09 06:28:37;;;;;;;25.25;23.83;;;;;;;14.11;65.19;100528.59;5028093;28;20378;-72
2022/11/09 06:31:04;;;;;;;24.65;23.15;;;;;;;14.11;65.15;100540.31;5011903;28;20053;-72
2022/11/09 06:33:31;;;;;;;24.77;23.17;;;;;;;14.10;65.20;100541.38;5011944;28;20077;-72
2022/11/09 06:35:57;;;;;;;24.38;23.05;;;;;;;14.09;65.25;100536.22;5015790;28;20037;-72
2022/11/09 06:38:25;;;;;;;25.13;23.75;;;;;;;14.09;65.09;100541.66;5024069;28;20045;-72
2022/11/09 06:40:54;;;;;;;25.00;23.58;;;;;;;14.07;65.03;100531.84;5016214;28;20038;-72
2022/11/09 06:43:20;;;;;;;26.77;25.00;;;;;;;14.07;65.22;100533.78;5012109;28;20060;-72
2022/11/09 06:45:46;;;;;;;26.25;24.20;;;;;;;14.06;65.24;100535.69;5014575;28;20042;-72
2022/11/09 06:48:11;;;;;;;24.67;23.17;;;;;;;14.06;65.30;100532.97;5018672;28;20033;-72
2022/11/09 06:50:37;;;;;;;25.98;24.30;;;;;;;14.07;65.09;100533.78;5027146;28;20033;-71
2022/11/09 06:53:04;;;;;;;23.55;22.05;;;;;;;14.05;65.00;100542.16;5012432;28;20026;-71
2022/11/09 06:55:31;;;;;;;24.55;23.05;;;;;;;14.05;65.34;100547.59;5033922;28;20380;-71
2022/11/09 06:57:57;;;;;;;24.85;23.27;;;;;;;14.05;65.02;100549.50;5014886;28;20024;-71
2022/11/09 07:00:24;;;;;;;23.70;22.13;;;;;;;14.04;65.06;100553.31;5022530;28;20038;-72
2022/11/09 07:02:50;;;;;;;25.92;24.23;;;;;;;14.04;65.17;100551.41;5011641;28;20141;-72
2022/11/09 07:05:16;;;;;;;26.38;24.48;;;;;;;14.04;65.11;100556.03;5046208;28;20350;-71
2022/11/09 07:07:41;;;;;;;25.40;24.00;;;;;;;14.04;65.01;100561.47;5026152;28;20442;-71
2022/11/09 07:10:07;;;;;;;24.92;23.20;;;;;;;14.03;65.11;100563.34;5011884;28;20026;-71
2022/11/09 07:12:34;;;;;;;23.55;22.30;;;;;;;14.01;65.04;100557.41;5029055;28;20117;-72
2022/11/09 07:14:59;;;;;;;23.90;22.60;;;;;;;14.01;65.31;100562.81;5012082;28;20078;-72
2022/11/09 07:17:25;;;;;;;25.65;23.75;;;;;;;14.01;65.23;100562.81;5019244;28;20487;-72
2022/11/09 07:19:50;;;;;;;25.52;23.85;;;;;;;14.01;64.98;100559.28;5011694;28;20472;-72
2022/11/09 07:22:16;;;;;;;24.05;22.67;;;;;;;14.00;64.96;100554.94;5012045;28;20030;-71
2022/11/09 07:24:41;;;;;;;26.20;24.65;;;;;;;13.99;65.19;100566.91;5021799;28;20037;-71
2022/11/09 07:27:07;;;;;;;24.67;23.30;;;;;;;13.98;64.97;100566.06;5020102;28;20025;-72
2022/11/09 07:29:32;;;;;;;25.52;24.13;;;;;;;13.98;65.11;100562.53;5011959;28;20462;-72
2022/11/09 07:31:57;;;;;;;24.58;22.75;;;;;;;13.98;65.42;100559.81;5014163;28;20370;-72
2022/11/09 07:34:23;;;;;;;23.75;22.45;;;;;;;13.97;64.93;100569.06;5020774;28;20033;-72
2022/11/09 07:36:48;;;;;;;24.40;22.95;;;;;;;13.97;65.09;100566.34;5029199;28;20378;-72
2022/11/09 07:39:13;;;;;;;25.30;23.23;;;;;;;13.95;65.04;100566.59;5019101;28;20153;-72
2022/11/09 07:41:39;;;;;;;24.58;23.17;;;;;;;13.96;65.11;100572.84;5014390;28;20057;-72
2022/11/09 07:44:04;;;;;;;24.55;22.85;;;;;;;13.95;64.96;100568.50;5022904;28;20036;-72
2022/11/09 07:46:29;;;;;;;24.70;23.33;;;;;;;13.95;65.15;100574.75;5028578;28;20029;-71
2022/11/09 07:48:55;;;;;;;24.40;22.95;;;;;;;13.94;65.28;100577.75;5031885;28;20030;-72
2022/11/09 07:51:20;;;;;;;23.80;22.35;;;;;;;13.94;65.46;100580.47;5015509;28;20097;-72
2022/11/09 07:53:45;;;;;;;24.88;23.58;;;;;;;13.92;65.17;100577.19;5014478;28;20041;-72
2022/11/09 07:56:11;;;;;;;24.38;22.90;;;;;;;13.92;65.29;100578.00;5029101;28;20108;-71
2022/11/09 07:58:36;;;;;;;24.33;23.00;;;;;;;13.91;65.30;100581.81;5034305;28;20033;-72
2022/11/09 08:01:09;;;;;;;23.65;22.42;;;;;;;13.91;65.07;100579.09;5019742;28;20040;-72
2022/11/09 08:03:35;;;;;;;28.60;26.67;;;;;;;13.89;65.31;100594.84;5016142;28;21250;-74
2022/11/09 08:06:01;;;;;;;24.35;22.58;;;;;;;13.89;65.54;100584.00;5018071;28;20091;-71
2022/11/09 08:08:26;;;;;;;25.85;23.63;;;;;;;13.89;65.10;100585.88;5027737;28;20037;-71
2022/11/09 08:10:52;;;;;;;25.00;23.27;;;;;;;13.89;65.39;100586.69;5019366;28;20033;-72
2022/11/09 08:13:18;;;;;;;24.90;23.48;;;;;;;13.89;65.20;100589.41;5025244;28;20466;-72
2022/11/09 08:15:45;;;;;;;28.13;26.35;;;;;;;13.89;65.33;100597.56;5027184;28;20029;-72
2022/11/09 08:18:13;;;;;;;26.13;24.33;;;;;;;13.89;65.17;100594.03;5017752;28;20080;-72
2022/11/09 08:20:39;;;;;;;23.65;22.20;;;;;;;13.89;65.36;100607.63;5025889;28;20070;-72
2022/11/09 08:23:05;;;;;;;23.45;22.05;;;;;;;13.89;65.08;100602.19;5025763;28;20030;-72
2022/11/09 08:25:34;;;;;;;25.30;23.80;;;;;;;13.90;65.38;100609.22;5044121;28;20406;-73
2022/11/09 08:27:59;;;;;;;27.52;25.42;;;;;;;13.88;65.28;100604.06;5029137;28;20030;-71
2022/11/09 08:30:25;;;;;;;25.50;24.20;;;;;;;13.88;65.14;100611.41;5016821;28;20049;-72
2022/11/09 08:32:51;;;;;;;26.48;24.55;;;;;;;13.88;65.37;100619.53;5016920;28;20030;-74
2022/11/09 08:35:19;;;;;;;25.27;23.70;;;;;;;13.88;65.43;100617.63;5020934;28;20036;-74
2022/11/09 08:37:46;;;;;;;26.23;24.33;;;;;;;13.87;65.37;100621.44;5021160;28;21022;-71
2022/11/09 08:40:14;;;;;;;25.70;24.20;;;;;;;13.87;65.21;100621.44;5024310;28;20699;-75
2022/11/09 08:42:39;;;;;;;25.80;23.80;;;;;;;13.88;65.36;100620.34;5020268;28;20099;-71
2022/11/09 08:45:05;;;;;;;26.92;25.05;;;;;;;13.88;65.09;100624.97;5011530;28;20042;-74
2022/11/09 08:47:30;;;;;;;26.02;23.98;;;;;;;13.87;65.34;100626.88;5022745;28;20061;-71
2022/11/09 08:49:56;;;;;;;26.80;25.02;;;;;;;13.87;65.56;100631.50;5009722;28;20461;-72
2022/11/09 08:52:22;;;;;;;24.85;23.40;;;;;;;13.88;65.18;100627.69;5013448;28;20124;-72
2022/11/09 08:54:47;;;;;;;25.25;23.85;;;;;;;13.87;65.47;100620.63;5018058;28;20022;-74
2022/11/09 08:57:13;;;;;;;24.52;23.08;;;;;;;13.88;65.31;100624.97;5024895;28;20083;-71
2022/11/09 08:59:38;;;;;;;25.75;23.73;;;;;;;13.87;65.21;100624.16;5027271;28;20605;-72
2022/11/09 09:02:04;;;;;;;27.40;25.73;;;;;;;13.89;65.22;100619.28;5027784;28;20026;-71
2022/11/09 09:04:29;;;;;;;24.10;22.80;;;;;;;13.88;64.80;100623.06;5027532;28;20152;-72
2022/11/09 09:06:55;;;;;;;28.35;26.50;;;;;;;13.88;65.48;100624.97;5023848;28;20112;-72
2022/11/09 09:09:20;;;;;;;24.55;23.05;;;;;;;13.89;65.44;100623.91;5027406;28;20128;-72
2022/11/09 09:11:46;;;;;;;26.45;24.92;;;;;;;13.89;65.52;100626.63;5023709;28;20038;-73
2022/11/09 09:14:11;;;;;;;25.00;23.48;;;;;;;13.89;65.03;100626.63;5011151;28;20529;-71
2022/11/09 09:16:37;;;;;;;26.35;24.55;;;;;;;13.90;65.34;100620.09;5020179;28;20040;-72
2022/11/09 09:19:03;;;;;;;27.67;25.35;;;;;;;13.90;65.07;100628.25;5015463;28;20034;-71
2022/11/09 09:21:28;;;;;;;24.70;23.38;;;;;;;13.90;65.31;100628.25;5016600;28;20034;-72
2022/11/09 09:23:54;;;;;;;27.50;25.90;;;;;;;13.88;65.55;100631.22;5017603;28;20041;-71
2022/11/09 09:26:20;;;;;;;25.92;24.27;;;;;;;13.89;65.43;100632.84;5018220;28;20038;-71
2022/11/09 09:28:45;;;;;;;25.60;24.00;;;;;;;13.91;65.15;100635.28;5023749;28;20029;-72
2022/11/09 09:31:10;;;;;;;25.20;23.55;;;;;;;13.92;65.37;100639.66;5024708;28;20076;-71
2022/11/09 09:33:36;;;;;;;27.20;25.67;;;;;;;13.91;65.36;100638.84;5020675;28;20394;-71
2022/11/09 09:36:01;;;;;;;26.80;25.20;;;;;;;13.92;65.29;100650.50;5014384;28;20037;-71
2022/11/09 09:38:28;;;;;;;25.60;24.00;;;;;;;13.91;65.52;100648.88;5022355;28;20095;-71
2022/11/09 09:40:58;;;;;;;25.95;24.48;;;;;;;13.90;65.29;100642.63;5023831;28;20034;-73
2022/11/09 09:43:30;;;;;;;23.45;22.25;;;;;;;13.91;65.43;100659.72;5023427;28;20049;-72
2022/11/09 09:45:58;;;;;;;26.65;25.08;;;;;;;13.91;65.44;100652.44;5022196;28;20037;-72
2022/11/09 09:48:23;;;;;;;27.20;25.35;;;;;;;13.92;65.51;100670.34;5022805;28;20790;-72
2022/11/09 09:50:52;;;;;;;26.38;24.05;;;;;;;13.93;65.47;100663.81;5023578;28;20025;-72
2022/11/09 09:53:40;;;;;;;25.40;23.27;;;;;;;13.94;65.26;100660.03;5022785;28;20406;-72
2022/11/09 09:56:12;;;;;;;27.05;25.25;;;;;;;13.93;65.99;100671.16;5012838;28;20025;-74
2022/11/09 09:58:45;;;;;;;24.02;22.73;;;;;;;13.95;65.42;100674.41;5024454;28;20385;-72
2022/11/09 10:01:16;;;;;;;24.10;22.80;;;;;;;13.96;65.15;100670.59;5027422;28;20021;-71
2022/11/09 10:03:41;;;;;;;26.30;24.13;;;;;;;13.99;65.30;100684.47;5022753;28;20088;-71
2022/11/09 10:06:25;;;;;;;26.08;24.67;;;;;;;13.99;65.34;100687.19;5025631;28;20037;-71
2022/11/09 10:09:04;;;;;;;25.55;24.17;;;;;;;13.98;65.23;100688.25;5026554;28;20033;-71
2022/11/09 10:11:40;;;;;;;25.38;23.45;;;;;;;13.99;65.12;100689.09;5024344;28;20037;-70
2022/11/09 10:14:24;;;;;;;27.23;25.50;;;;;;;13.98;65.41;100690.97;5028494;28;20029;-70
2022/11/09 10:17:01;;;;;;;26.25;24.83;;;;;;;13.98;65.36;100692.88;5026410;28;20029;-71
2022/11/09 10:19:47;;;;;;;24.70;23.27;;;;;;;14.00;65.49;100690.72;5022093;28;20052;-71
2022/11/09 10:22:21;;;;;;;24.90;23.40;;;;;;;14.00;65.20;100702.41;5035346;28;20377;-71
2022/11/09 10:24:55;;;;;;;23.58;22.33;;;;;;;14.01;65.25;100700.50;5027752;28;20072;-71
2022/11/09 10:27:32;;;;;;;25.75;23.92;;;;;;;14.02;65.05;100704.84;5021315;28;20068;-70
2022/11/09 10:29:59;;;;;;;24.80;23.50;;;;;;;14.02;64.94;100699.44;5024402;28;20048;-71
2022/11/09 10:32:30;;;;;;;25.63;24.33;;;;;;;14.03;65.06;100709.19;5026585;28;20483;-71
2022/11/09 10:35:04;;;;;;;24.40;23.05;;;;;;;14.04;65.13;100716.28;5025660;28;20109;-71
2022/11/09 10:37:45;;;;;;;25.75;23.83;;;;;;;14.05;65.06;100721.44;5023263;28;20029;-71
2022/11/09 10:40:11;;;;;;;26.13;24.38;;;;;;;14.07;64.88;100721.16;5022964;28;20132;-71
2022/11/09 10:42:36;;;;;;;24.05;22.83;;;;;;;14.09;65.00;100718.19;5025065;28;20132;-72
2022/11/09 10:45:31;;;;;;;26.00;24.33;;;;;;;14.10;64.74;100714.38;5022735;28;20060;-74
2022/11/09 10:47:58;;;;;;;24.35;23.10;;;;;;;14.13;64.94;100722.00;5024223;28;20556;-72
2022/11/09 10:50:26;;;;;;;25.60;24.30;;;;;;;14.15;64.96;100717.13;5027886;28;20030;-72
2022/11/09 10:52:52;;;;;;;25.02;23.63;;;;;;;14.19;64.52;100726.38;5023945;28;20042;-71
2022/11/09 10:55:25;;;;;;;26.63;25.02;;;;;;;14.20;64.59;100733.44;5025500;28;20060;-71
2022/11/09 10:58:21;;;;;;;26.95;24.52;;;;;;;14.23;64.67;100730.19;5021094;28;20385;-71
2022/11/09 11:00:58;;;;;;;26.10;24.58;;;;;;;14.22;64.78;100726.66;5020885;28;20029;-71
2022/11/09 11:03:23;;;;;;;25.83;24.30;;;;;;;14.23;64.66;100724.75;5024758;28;20030;-70
2022/11/09 11:05:57;;;;;;;25.63;23.92;;;;;;;14.25;64.67;100726.09;5020793;28;20083;-70
2022/11/09 11:08:30;;;;;;;26.30;24.45;;;;;;;14.24;64.29;100724.50;5024740;28;20030;-69
2022/11/09 11:11:13;;;;;;;24.88;23.33;;;;;;;14.24;64.87;100724.50;5028088;28;20117;-73
2022/11/09 11:13:39;;;;;;;25.45;24.00;;;;;;;14.25;64.82;100728.81;5040643;28;20468;-70